sensor_id;sensor_type;location;lat;lon;timestamp;pressure;altitude;pressure_sealevel;temperature;humidity
46756;BME280;32506;52.826;-1.192;2022-07-23T00:00:44;101197.53;;;18.70;42.69
46756;BME280;32506;52.826;-1.192;2022-07-23T00:03:11;101192.63;;;18.67;42.95
46756;BME280;32506;52.826;-1.192;2022-07-23T00:05:37;101183.91;;;18.65;43.07
46756;BME280;32506;52.826;-1.192;2022-07-23T00:08:02;101182.28;;;18.64;42.80
46756;BME280;32506;52.826;-1.192;2022-07-23T00:10:28;101183.59;;;18.61;43.06
46756;BME280;32506;52.826;-1.192;2022-07-23T00:12:53;101181.16;;;18.59;43.17
46756;BME280;32506;52.826;-1.192;2022-07-23T00:15:19;101181.41;;;18.58;43.25
46756;BME280;32506;52.826;-1.192;2022-07-23T00:17:44;101184.38;;;18.56;43.24
46756;BME280;32506;52.826;-1.192;2022-07-23T00:20:10;101185.44;;;18.55;43.74
46756;BME280;32506;52.826;-1.192;2022-07-23T00:22:35;101178.63;;;18.53;43.38
46756;BME280;32506;52.826;-1.192;2022-07-23T00:25:01;101175.38;;;18.51;43.72
46756;BME280;32506;52.826;-1.192;2022-07-23T00:27:27;101176.44;;;18.50;43.78
46756;BME280;32506;52.826;-1.192;2022-07-23T00:29:52;101164.22;;;18.47;43.88
46756;BME280;32506;52.826;-1.192;2022-07-23T00:32:18;101169.88;;;18.45;44.14
46756;BME280;32506;52.826;-1.192;2022-07-23T00:34:43;101169.31;;;18.43;43.92
46756;BME280;32506;52.826;-1.192;2022-07-23T00:37:08;101166.03;;;18.41;44.33
46756;BME280;32506;52.826;-1.192;2022-07-23T00:39:34;101164.41;;;18.40;44.49
46756;BME280;32506;52.826;-1.192;2022-07-23T00:41:59;101160.06;;;18.39;44.79
46756;BME280;32506;52.826;-1.192;2022-07-23T00:44:27;101154.09;;;18.37;44.48
46756;BME280;32506;52.826;-1.192;2022-07-23T00:46:58;101155.97;;;18.37;45.03
46756;BME280;32506;52.826;-1.192;2022-07-23T00:49:25;101141.03;;;18.34;45.27
46756;BME280;32506;52.826;-1.192;2022-07-23T00:51:52;101142.94;;;18.34;45.59
46756;BME280;32506;52.826;-1.192;2022-07-23T00:54:18;101143.19;;;18.32;45.42
46756;BME280;32506;52.826;-1.192;2022-07-23T00:56:44;101137.78;;;18.32;46.25
46756;BME280;32506;52.826;-1.192;2022-07-23T00:59:10;101139.91;;;18.30;46.60
46756;BME280;32506;52.826;-1.192;2022-07-23T01:01:36;101140.16;;;18.28;46.97
46756;BME280;32506;52.826;-1.192;2022-07-23T01:04:02;101138.53;;;18.27;47.19
46756;BME280;32506;52.826;-1.192;2022-07-23T01:06:27;101133.38;;;18.26;47.11
46756;BME280;32506;52.826;-1.192;2022-07-23T01:08:54;101133.38;;;18.26;47.16
46756;BME280;32506;52.826;-1.192;2022-07-23T01:11:21;101131.97;;;18.23;47.75
46756;BME280;32506;52.826;-1.192;2022-07-23T01:13:48;101138.22;;;18.24;47.47
46756;BME280;32506;52.826;-1.192;2022-07-23T01:16:13;101125.75;;;18.23;47.45
46756;BME280;32506;52.826;-1.192;2022-07-23T01:18:39;101126.81;;;18.22;47.68
46756;BME280;32506;52.826;-1.192;2022-07-23T01:21:04;101126.28;;;18.20;48.07
46756;BME280;32506;52.826;-1.192;2022-07-23T01:23:30;101130.03;;;18.19;48.00
46756;BME280;32506;52.826;-1.192;2022-07-23T01:25:55;101123.81;;;18.18;47.75
46756;BME280;32506;52.826;-1.192;2022-07-23T01:28:21;101120.53;;;18.16;47.94
46756;BME280;32506;52.826;-1.192;2022-07-23T01:30:47;101127.59;;;18.17;47.41
46756;BME280;32506;52.826;-1.192;2022-07-23T01:33:13;101124.31;;;18.15;48.05
46756;BME280;32506;52.826;-1.192;2022-07-23T01:35:38;101122.66;;;18.14;48.16
46756;BME280;32506;52.826;-1.192;2022-07-23T01:38:04;101122.66;;;18.14;48.40
46756;BME280;32506;52.826;-1.192;2022-07-23T01:40:29;101122.91;;;18.13;48.35
46756;BME280;32506;52.826;-1.192;2022-07-23T01:42:55;101124.81;;;18.12;48.65
46756;BME280;32506;52.826;-1.192;2022-07-23T01:45:20;101128.56;;;18.11;48.52
46756;BME280;32506;52.826;-1.192;2022-07-23T01:47:46;101120.72;;;18.09;48.52
46756;BME280;32506;52.826;-1.192;2022-07-23T01:50:12;101121.78;;;18.08;48.87
46756;BME280;32506;52.826;-1.192;2022-07-23T01:52:38;101124.75;;;18.07;48.89
46756;BME280;32506;52.826;-1.192;2022-07-23T01:55:03;101126.63;;;18.06;48.84
46756;BME280;32506;52.826;-1.192;2022-07-23T01:57:31;101127.69;;;18.05;48.55
46756;BME280;32506;52.826;-1.192;2022-07-23T01:59:56;101132.31;;;18.05;48.85
46756;BME280;32506;52.826;-1.192;2022-07-23T02:02:21;101122.78;;;18.02;48.84
46756;BME280;32506;52.826;-1.192;2022-07-23T02:04:47;101123.59;;;18.03;48.53
46756;BME280;32506;52.826;-1.192;2022-07-23T02:07:12;101121.97;;;18.02;48.89
46756;BME280;32506;52.826;-1.192;2022-07-23T02:09:38;101120.31;;;18.01;48.95
46756;BME280;32506;52.826;-1.192;2022-07-23T02:12:04;101117.59;;;18.01;48.73
46756;BME280;32506;52.826;-1.192;2022-07-23T02:14:29;101127.63;;;18.00;48.70
46756;BME280;32506;52.826;-1.192;2022-07-23T02:16:55;101117.88;;;17.99;49.09
46756;BME280;32506;52.826;-1.192;2022-07-23T02:19:20;101122.47;;;17.99;49.25
46756;BME280;32506;52.826;-1.192;2022-07-23T02:21:46;101116.25;;;17.98;48.79
46756;BME280;32506;52.826;-1.192;2022-07-23T02:24:12;101120.81;;;17.98;49.18
46756;BME280;32506;52.826;-1.192;2022-07-23T02:26:37;101118.38;;;17.96;48.97
46756;BME280;32506;52.826;-1.192;2022-07-23T02:29:03;101119.19;;;17.97;49.25
46756;BME280;32506;52.826;-1.192;2022-07-23T02:31:30;101123.78;;;17.96;49.23
46756;BME280;32506;52.826;-1.192;2022-07-23T02:33:55;101113.22;;;17.94;49.61
46756;BME280;32506;52.826;-1.192;2022-07-23T02:36:21;101122.38;;;17.93;49.51
46756;BME280;32506;52.826;-1.192;2022-07-23T02:38:47;101114.84;;;17.96;49.66
46756;BME280;32506;52.826;-1.192;2022-07-23T02:41:12;101113.22;;;17.94;49.58
46756;BME280;32506;52.826;-1.192;2022-07-23T02:43:38;101110.78;;;17.93;49.83
46756;BME280;32506;52.826;-1.192;2022-07-23T02:46:04;101111.00;;;17.91;49.79
46756;BME280;32506;52.826;-1.192;2022-07-23T02:48:30;101109.94;;;17.92;49.89
46756;BME280;32506;52.826;-1.192;2022-07-23T02:50:55;101114.75;;;17.90;49.70
46756;BME280;32506;52.826;-1.192;2022-07-23T02:53:22;101120.97;;;17.91;50.02
46756;BME280;32506;52.826;-1.192;2022-07-23T02:55:48;101115.00;;;17.89;49.93
46756;BME280;32506;52.826;-1.192;2022-07-23T02:58:13;101123.13;;;17.89;50.07
46756;BME280;32506;52.826;-1.192;2022-07-23T03:00:39;101117.94;;;17.87;49.88
46756;BME280;32506;52.826;-1.192;2022-07-23T03:03:04;101118.19;;;17.86;49.91
46756;BME280;32506;52.826;-1.192;2022-07-23T03:05:30;101118.19;;;17.86;49.63
46756;BME280;32506;52.826;-1.192;2022-07-23T03:07:55;101122.19;;;17.83;49.59
46756;BME280;32506;52.826;-1.192;2022-07-23T03:10:20;101131.41;;;17.82;49.33
46756;BME280;32506;52.826;-1.192;2022-07-23T03:12:46;101131.41;;;17.82;49.09
46756;BME280;32506;52.826;-1.192;2022-07-23T03:15:11;101127.31;;;17.80;49.10
46756;BME280;32506;52.826;-1.192;2022-07-23T03:17:37;101137.53;;;17.77;49.47
46756;BME280;32506;52.826;-1.192;2022-07-23T03:20:03;101143.19;;;17.76;49.26
46756;BME280;32506;52.826;-1.192;2022-07-23T03:22:28;101140.75;;;17.74;49.29
46756;BME280;32506;52.826;-1.192;2022-07-23T03:24:53;101139.09;;;17.73;49.58
46756;BME280;32506;52.826;-1.192;2022-07-23T03:27:29;101139.34;;;17.72;49.47
46756;BME280;32506;52.826;-1.192;2022-07-23T03:29:57;101132.56;;;17.69;49.57
46756;BME280;32506;52.826;-1.192;2022-07-23T03:32:24;101132.81;;;17.68;49.33
46756;BME280;32506;52.826;-1.192;2022-07-23T03:34:50;101136.56;;;17.67;49.19
46756;BME280;32506;52.826;-1.192;2022-07-23T03:37:16;101137.41;;;17.67;49.03
46756;BME280;32506;52.826;-1.192;2022-07-23T03:39:42;101137.88;;;17.64;48.90
46756;BME280;32506;52.826;-1.192;2022-07-23T03:42:07;101137.63;;;17.66;49.06
46756;BME280;32506;52.826;-1.192;2022-07-23T03:44:33;101130.81;;;17.63;48.98
46756;BME280;32506;52.826;-1.192;2022-07-23T03:46:59;101138.94;;;17.63;48.79
46756;BME280;32506;52.826;-1.192;2022-07-23T03:49:24;101133.53;;;17.63;48.71
46756;BME280;32506;52.826;-1.192;2022-07-23T03:51:50;101131.06;;;17.61;48.55
46756;BME280;32506;52.826;-1.192;2022-07-23T03:54:15;101130.28;;;17.61;48.48
46756;BME280;32506;52.826;-1.192;2022-07-23T03:56:41;101128.63;;;17.60;48.35
46756;BME280;32506;52.826;-1.192;2022-07-23T03:59:08;101126.16;;;17.58;48.32
46756;BME280;32506;52.826;-1.192;2022-07-23T04:01:34;101120.19;;;17.56;48.04
46756;BME280;32506;52.826;-1.192;2022-07-23T04:03:59;101118.56;;;17.55;47.90
46756;BME280;32506;52.826;-1.192;2022-07-23T04:06:25;101112.31;;;17.55;47.82
46756;BME280;32506;52.826;-1.192;2022-07-23T04:08:50;101117.97;;;17.53;47.98
46756;BME280;32506;52.826;-1.192;2022-07-23T04:11:15;101113.88;;;17.51;47.52
46756;BME280;32506;52.826;-1.192;2022-07-23T04:13:41;101112.25;;;17.50;47.80
46756;BME280;32506;52.826;-1.192;2022-07-23T04:16:06;101104.38;;;17.48;47.84
46756;BME280;32506;52.826;-1.192;2022-07-23T04:18:33;101111.69;;;17.48;47.80
46756;BME280;32506;52.826;-1.192;2022-07-23T04:20:58;101114.63;;;17.46;48.06
46756;BME280;32506;52.826;-1.192;2022-07-23T04:23:23;101114.03;;;17.44;48.29
46756;BME280;32506;52.826;-1.192;2022-07-23T04:25:49;101108.66;;;17.44;48.24
46756;BME280;32506;52.826;-1.192;2022-07-23T04:28:15;101110.78;;;17.42;48.40
46756;BME280;32506;52.826;-1.192;2022-07-23T04:30:40;101110.78;;;17.42;48.68
46756;BME280;32506;52.826;-1.192;2022-07-23T04:33:06;101113.50;;;17.42;48.53
46756;BME280;32506;52.826;-1.192;2022-07-23T04:35:33;101120.75;;;17.41;49.09
46756;BME280;32506;52.826;-1.192;2022-07-23T04:37:58;101119.44;;;17.44;48.85
46756;BME280;32506;52.826;-1.192;2022-07-23T04:40:24;101121.34;;;17.43;48.93
46756;BME280;32506;52.826;-1.192;2022-07-23T04:42:50;101123.78;;;17.45;49.37
46756;BME280;32506;52.826;-1.192;2022-07-23T04:45:15;101123.00;;;17.44;50.08
46756;BME280;32506;52.826;-1.192;2022-07-23T04:47:41;101118.66;;;17.43;50.31
46756;BME280;32506;52.826;-1.192;2022-07-23T04:50:06;101109.47;;;17.44;50.61
46756;BME280;32506;52.826;-1.192;2022-07-23T04:52:32;101107.84;;;17.43;50.88
46756;BME280;32506;52.826;-1.192;2022-07-23T04:54:57;101099.47;;;17.45;50.93
46756;BME280;32506;52.826;-1.192;2022-07-23T04:57:23;101099.22;;;17.47;50.91
46756;BME280;32506;52.826;-1.192;2022-07-23T04:59:48;101100.88;;;17.48;51.01
46756;BME280;32506;52.826;-1.192;2022-07-23T05:02:13;101093.31;;;17.50;51.23
46756;BME280;32506;52.826;-1.192;2022-07-23T05:04:39;101087.91;;;17.50;51.51
46756;BME280;32506;52.826;-1.192;2022-07-23T05:07:04;101095.81;;;17.51;51.21
46756;BME280;32506;52.826;-1.192;2022-07-23T05:09:30;101090.16;;;17.53;51.24
46756;BME280;32506;52.826;-1.192;2022-07-23T05:11:55;101085.56;;;17.53;51.20
46756;BME280;32506;52.826;-1.192;2022-07-23T05:14:21;101100.47;;;17.56;51.15
46756;BME280;32506;52.826;-1.192;2022-07-23T05:16:46;101110.22;;;17.57;51.43
46756;BME280;32506;52.826;-1.192;2022-07-23T05:19:12;101109.97;;;17.58;51.27
46756;BME280;32506;52.826;-1.192;2022-07-23T05:21:37;101106.19;;;17.59;50.91
46756;BME280;32506;52.826;-1.192;2022-07-23T05:24:03;101109.69;;;17.60;51.20
46756;BME280;32506;52.826;-1.192;2022-07-23T05:26:28;101111.34;;;17.61;51.63
46756;BME280;32506;52.826;-1.192;2022-07-23T05:28:54;101120.00;;;17.63;51.76
46756;BME280;32506;52.826;-1.192;2022-07-23T05:31:19;101128.72;;;17.65;52.17
46756;BME280;32506;52.826;-1.192;2022-07-23T05:33:45;101123.03;;;17.67;52.05
46756;BME280;32506;52.826;-1.192;2022-07-23T05:36:11;101124.69;;;17.68;52.34
46756;BME280;32506;52.826;-1.192;2022-07-23T05:38:36;101127.16;;;17.69;51.77
46756;BME280;32506;52.826;-1.192;2022-07-23T05:41:02;101128.78;;;17.70;51.97
46756;BME280;32506;52.826;-1.192;2022-07-23T05:43:27;101125.84;;;17.72;51.77
46756;BME280;32506;52.826;-1.192;2022-07-23T05:45:53;101130.19;;;17.73;51.54
46756;BME280;32506;52.826;-1.192;2022-07-23T05:48:19;101125.31;;;17.75;51.41
46756;BME280;32506;52.826;-1.192;2022-07-23T05:50:45;101134.84;;;17.77;51.95
46756;BME280;32506;52.826;-1.192;2022-07-23T05:53:10;101131.06;;;17.78;51.16
46756;BME280;32506;52.826;-1.192;2022-07-23T05:55:36;101130.81;;;17.80;50.99
46756;BME280;32506;52.826;-1.192;2022-07-23T05:58:01;101136.81;;;17.82;50.89
46756;BME280;32506;52.826;-1.192;2022-07-23T06:00:27;101138.44;;;17.83;50.52
46756;BME280;32506;52.826;-1.192;2022-07-23T06:02:52;101138.19;;;17.85;50.56
46756;BME280;32506;52.826;-1.192;2022-07-23T06:05:19;101128.19;;;17.85;50.58
46756;BME280;32506;52.826;-1.192;2022-07-23T06:07:44;101125.25;;;17.87;50.62
46756;BME280;32506;52.826;-1.192;2022-07-23T06:10:10;101129.34;;;17.89;50.64
46756;BME280;32506;52.826;-1.192;2022-07-23T06:12:36;101119.31;;;17.90;50.58
46756;BME280;32506;52.826;-1.192;2022-07-23T06:15:02;101129.69;;;17.93;50.38
46756;BME280;32506;52.826;-1.192;2022-07-23T06:17:28;101124.84;;;17.95;50.79
46756;BME280;32506;52.826;-1.192;2022-07-23T06:19:54;101128.13;;;17.97;50.99
46756;BME280;32506;52.826;-1.192;2022-07-23T06:22:20;101133.03;;;18.00;51.04
46756;BME280;32506;52.826;-1.192;2022-07-23T06:24:45;101128.19;;;18.02;51.50
46756;BME280;32506;52.826;-1.192;2022-07-23T06:27:10;101122.53;;;18.04;51.33
46756;BME280;32506;52.826;-1.192;2022-07-23T06:29:36;101123.94;;;18.06;51.15
46756;BME280;32506;52.826;-1.192;2022-07-23T06:32:01;101140.22;;;18.11;51.43
46756;BME280;32506;52.826;-1.192;2022-07-23T06:34:27;101130.78;;;18.14;51.58
46756;BME280;32506;52.826;-1.192;2022-07-23T06:36:53;101133.56;;;18.19;51.82
46756;BME280;32506;52.826;-1.192;2022-07-23T06:39:18;101133.06;;;18.22;51.64
46756;BME280;32506;52.826;-1.192;2022-07-23T06:41:43;101130.66;;;18.26;51.88
46756;BME280;32506;52.826;-1.192;2022-07-23T06:44:09;101129.94;;;18.31;52.01
46756;BME280;32506;52.826;-1.192;2022-07-23T06:46:35;101135.63;;;18.34;52.45
46756;BME280;32506;52.826;-1.192;2022-07-23T06:49:00;101127.59;;;18.39;52.17
46756;BME280;32506;52.826;-1.192;2022-07-23T06:51:26;101133.06;;;18.44;52.36
46756;BME280;32506;52.826;-1.192;2022-07-23T06:53:51;101134.78;;;18.51;52.90
46756;BME280;32506;52.826;-1.192;2022-07-23T06:56:16;101141.06;;;18.56;52.72
46756;BME280;32506;52.826;-1.192;2022-07-23T06:58:42;101139.22;;;18.62;51.96
46756;BME280;32506;52.826;-1.192;2022-07-23T07:01:07;101140.94;;;18.68;52.03
46756;BME280;32506;52.826;-1.192;2022-07-23T07:03:33;101139.09;;;18.74;52.67
46756;BME280;32506;52.826;-1.192;2022-07-23T07:05:58;101129.97;;;18.80;52.31
46756;BME280;32506;52.826;-1.192;2022-07-23T07:08:24;101136.25;;;18.86;51.95
46756;BME280;32506;52.826;-1.192;2022-07-23T07:10:50;101141.50;;;18.92;52.49
46756;BME280;32506;52.826;-1.192;2022-07-23T07:13:15;101143.16;;;18.99;52.37
46756;BME280;32506;52.826;-1.192;2022-07-23T07:15:41;101136.72;;;19.05;52.26
46756;BME280;32506;52.826;-1.192;2022-07-23T07:18:07;101144.66;;;19.11;52.09
46756;BME280;32506;52.826;-1.192;2022-07-23T07:20:32;101141.72;;;19.18;52.05
46756;BME280;32506;52.826;-1.192;2022-07-23T07:22:58;101150.44;;;19.25;52.28
46756;BME280;32506;52.826;-1.192;2022-07-23T07:25:23;101150.50;;;19.31;52.18
46756;BME280;32506;52.826;-1.192;2022-07-23T07:27:49;101146.78;;;19.37;52.34
46756;BME280;32506;52.826;-1.192;2022-07-23T07:30:14;101148.44;;;19.43;52.01
46756;BME280;32506;52.826;-1.192;2022-07-23T07:32:40;101136.84;;;19.48;52.08
46756;BME280;32506;52.826;-1.192;2022-07-23T07:35:06;101135.25;;;19.52;51.90
46756;BME280;32506;52.826;-1.192;2022-07-23T07:37:32;101133.38;;;19.57;52.10
46756;BME280;32506;52.826;-1.192;2022-07-23T07:39:57;101133.16;;;19.64;51.92
46756;BME280;32506;52.826;-1.192;2022-07-23T07:42:23;101126.69;;;19.70;51.76
46756;BME280;32506;52.826;-1.192;2022-07-23T07:44:48;101135.41;;;19.77;52.09
46756;BME280;32506;52.826;-1.192;2022-07-23T07:47:14;101137.94;;;19.84;52.00
46756;BME280;32506;52.826;-1.192;2022-07-23T07:49:41;101141.47;;;19.90;51.81
46756;BME280;32506;52.826;-1.192;2022-07-23T07:52:07;101141.78;;;19.93;51.76
46756;BME280;32506;52.826;-1.192;2022-07-23T07:54:32;101132.63;;;20.00;51.74
46756;BME280;32506;52.826;-1.192;2022-07-23T07:56:58;101137.81;;;20.06;51.92
46756;BME280;32506;52.826;-1.192;2022-07-23T07:59:23;101134.59;;;20.15;51.98
46756;BME280;32506;52.826;-1.192;2022-07-23T08:01:49;101135.41;;;20.20;52.42
46756;BME280;32506;52.826;-1.192;2022-07-23T08:04:14;101140.59;;;20.27;52.33
46756;BME280;32506;52.826;-1.192;2022-07-23T08:06:39;101143.63;;;20.36;52.42
46756;BME280;32506;52.826;-1.192;2022-07-23T08:09:05;101136.59;;;20.45;52.22
46756;BME280;32506;52.826;-1.192;2022-07-23T08:11:30;101138.56;;;20.55;52.29
46756;BME280;32506;52.826;-1.192;2022-07-23T08:13:56;101141.28;;;20.65;52.24
46756;BME280;32506;52.826;-1.192;2022-07-23T08:16:21;101139.44;;;20.76;52.26
46756;BME280;32506;52.826;-1.192;2022-07-23T08:18:47;101137.03;;;20.85;51.98
46756;BME280;32506;52.826;-1.192;2022-07-23T08:21:12;101142.50;;;20.95;52.04
46756;BME280;32506;52.826;-1.192;2022-07-23T08:23:38;101140.06;;;21.09;52.20
46756;BME280;32506;52.826;-1.192;2022-07-23T08:26:03;101139.53;;;21.22;51.96
46756;BME280;32506;52.826;-1.192;2022-07-23T08:28:29;101145.25;;;21.36;51.90
46756;BME280;32506;52.826;-1.192;2022-07-23T08:30:58;101139.81;;;21.52;51.70
46756;BME280;32506;52.826;-1.192;2022-07-23T08:33:24;101143.88;;;21.65;51.45
46756;BME280;32506;52.826;-1.192;2022-07-23T08:35:50;101145.81;;;21.79;51.29
46756;BME280;32506;52.826;-1.192;2022-07-23T08:38:19;101146.84;;;21.94;50.97
46756;BME280;32506;52.826;-1.192;2022-07-23T08:40:50;101153.63;;;22.07;50.95
46756;BME280;32506;52.826;-1.192;2022-07-23T08:43:21;101153.31;;;22.19;50.65
46756;BME280;32506;52.826;-1.192;2022-07-23T08:45:49;101148.38;;;22.31;50.46
46756;BME280;32506;52.826;-1.192;2022-07-23T08:48:20;101135.28;;;22.43;49.95
46756;BME280;32506;52.826;-1.192;2022-07-23T08:50:48;101139.59;;;22.55;49.65
46756;BME280;32506;52.826;-1.192;2022-07-23T08:53:14;101137.88;;;22.64;48.84
46756;BME280;32506;52.826;-1.192;2022-07-23T08:55:43;101147.09;;;22.73;48.45
46756;BME280;32506;52.826;-1.192;2022-07-23T08:58:09;101140.81;;;22.83;48.32
46756;BME280;32506;52.826;-1.192;2022-07-23T09:00:35;101142.09;;;22.91;47.80
46756;BME280;32506;52.826;-1.192;2022-07-23T09:03:00;101131.41;;;23.00;47.59
46756;BME280;32506;52.826;-1.192;2022-07-23T09:05:26;101140.63;;;23.09;47.21
46756;BME280;32506;52.826;-1.192;2022-07-23T09:08:04;101141.69;;;23.18;47.32
46756;BME280;32506;52.826;-1.192;2022-07-23T09:10:30;101141.34;;;23.25;47.03
46756;BME280;32506;52.826;-1.192;2022-07-23T09:12:56;101139.94;;;23.33;46.72
46756;BME280;32506;52.826;-1.192;2022-07-23T09:15:22;101138.19;;;23.42;46.40
46756;BME280;32506;52.826;-1.192;2022-07-23T09:17:47;101140.03;;;23.52;46.44
46756;BME280;32506;52.826;-1.192;2022-07-23T09:20:15;101146.50;;;23.61;45.89
46756;BME280;32506;52.826;-1.192;2022-07-23T09:22:47;101152.38;;;23.73;45.82
46756;BME280;32506;52.826;-1.192;2022-07-23T09:25:19;101144.09;;;23.84;45.54
46756;BME280;32506;52.826;-1.192;2022-07-23T09:27:55;101143.72;;;23.95;44.90
46756;BME280;32506;52.826;-1.192;2022-07-23T09:30:24;101140.09;;;24.05;44.29
46756;BME280;32506;52.826;-1.192;2022-07-23T09:33:16;101137.47;;;24.19;43.88
46756;BME280;32506;52.826;-1.192;2022-07-23T09:35:46;101133.56;;;24.25;43.63
46756;BME280;32506;52.826;-1.192;2022-07-23T09:38:12;101133.97;;;24.38;43.29
46756;BME280;32506;52.826;-1.192;2022-07-23T09:40:37;101127.53;;;24.48;42.88
46756;BME280;32506;52.826;-1.192;2022-07-23T09:43:03;101140.25;;;24.57;42.82
46756;BME280;32506;52.826;-1.192;2022-07-23T09:45:28;101142.06;;;24.67;42.59
46756;BME280;32506;52.826;-1.192;2022-07-23T09:48:14;101145.16;;;24.79;42.11
46756;BME280;32506;52.826;-1.192;2022-07-23T09:50:44;101136.59;;;24.86;42.18
46756;BME280;32506;52.826;-1.192;2022-07-23T09:53:23;101129.84;;;24.98;41.74
46756;BME280;32506;52.826;-1.192;2022-07-23T09:55:49;101130.00;;;25.06;41.67
46756;BME280;32506;52.826;-1.192;2022-07-23T09:58:16;101123.56;;;25.16;41.55
46756;BME280;32506;52.826;-1.192;2022-07-23T10:00:44;101138.72;;;25.27;41.46
46756;BME280;32506;52.826;-1.192;2022-07-23T10:03:12;101128.13;;;25.40;40.92
46756;BME280;32506;52.826;-1.192;2022-07-23T10:05:39;101123.28;;;25.51;40.87
46756;BME280;32506;52.826;-1.192;2022-07-23T10:08:11;101120.88;;;25.63;40.66
46756;BME280;32506;52.826;-1.192;2022-07-23T10:10:39;101125.06;;;25.74;40.33
46756;BME280;32506;52.826;-1.192;2022-07-23T10:13:04;101125.69;;;25.85;39.75
46756;BME280;32506;52.826;-1.192;2022-07-23T10:15:30;101122.72;;;25.95;39.56
46756;BME280;32506;52.826;-1.192;2022-07-23T10:17:56;101118.19;;;26.05;39.57
46756;BME280;32506;52.826;-1.192;2022-07-23T10:20:22;101127.00;;;26.16;39.41
46756;BME280;32506;52.826;-1.192;2022-07-23T10:25:46;101129.22;;;26.41;38.92
46756;BME280;32506;52.826;-1.192;2022-07-23T10:33:55;101117.94;;;26.93;38.04
46756;BME280;32506;52.826;-1.192;2022-07-23T10:36:30;101108.72;;;27.12;38.24
46756;BME280;32506;52.826;-1.192;2022-07-23T10:41:32;101110.25;;;27.50;38.18
46756;BME280;32506;52.826;-1.192;2022-07-23T10:44:16;101107.13;;;27.65;37.33
46756;BME280;32506;52.826;-1.192;2022-07-23T10:47:03;101114.59;;;27.82;37.71
46756;BME280;32506;52.826;-1.192;2022-07-23T10:49:48;101106.56;;;27.94;36.83
46756;BME280;32506;52.826;-1.192;2022-07-23T10:54:51;101097.94;;;28.19;35.78
46756;BME280;32506;52.826;-1.192;2022-07-23T10:57:22;101102.34;;;28.28;35.20
46756;BME280;32506;52.826;-1.192;2022-07-23T11:02:29;101100.56;;;28.41;34.02
46756;BME280;32506;52.826;-1.192;2022-07-23T11:04:59;101097.31;;;28.48;33.34
46756;BME280;32506;52.826;-1.192;2022-07-23T11:07:25;101088.44;;;28.51;33.12
46756;BME280;32506;52.826;-1.192;2022-07-23T11:09:50;101091.84;;;28.57;33.43
46756;BME280;32506;52.826;-1.192;2022-07-23T11:17:30;101090.56;;;28.72;32.98
46756;BME280;32506;52.826;-1.192;2022-07-23T11:22:55;101084.41;;;28.92;33.21
46756;BME280;32506;52.826;-1.192;2022-07-23T11:27:48;101088.28;;;29.09;33.00
46756;BME280;32506;52.826;-1.192;2022-07-23T11:32:53;101085.19;;;29.28;32.63
46756;BME280;32506;52.826;-1.192;2022-07-23T11:35:28;101087.56;;;29.38;32.70
46756;BME280;32506;52.826;-1.192;2022-07-23T11:38:02;101086.75;;;29.46;31.98
46756;BME280;32506;52.826;-1.192;2022-07-23T11:40:28;101088.34;;;29.56;31.46
46756;BME280;32506;52.826;-1.192;2022-07-23T11:43:02;101084.88;;;29.68;32.14
46756;BME280;32506;52.826;-1.192;2022-07-23T11:48:06;101077.66;;;29.85;31.93
46756;BME280;32506;52.826;-1.192;2022-07-23T11:50:34;101075.22;;;29.92;31.85
46756;BME280;32506;52.826;-1.192;2022-07-23T11:53:00;101078.63;;;29.98;31.95
46756;BME280;32506;52.826;-1.192;2022-07-23T11:55:26;101073.72;;;30.03;31.07
46756;BME280;32506;52.826;-1.192;2022-07-23T11:57:54;101076.63;;;30.07;31.32
46756;BME280;32506;52.826;-1.192;2022-07-23T12:00:26;101077.88;;;30.09;31.03
46756;BME280;32506;52.826;-1.192;2022-07-23T12:02:55;101082.59;;;30.09;30.85
46756;BME280;32506;52.826;-1.192;2022-07-23T12:05:23;101082.91;;;30.07;30.14
46756;BME280;32506;52.826;-1.192;2022-07-23T12:07:51;101084.41;;;30.05;30.17
46756;BME280;32506;52.826;-1.192;2022-07-23T12:10:34;101069.00;;;30.04;29.88
46756;BME280;32506;52.826;-1.192;2022-07-23T12:13:14;101068.53;;;30.02;30.13
46756;BME280;32506;52.826;-1.192;2022-07-23T12:15:49;101075.03;;;29.97;30.23
46756;BME280;32506;52.826;-1.192;2022-07-23T12:18:17;101066.31;;;29.95;30.11
46756;BME280;32506;52.826;-1.192;2022-07-23T12:20:46;101071.81;;;29.95;30.33
46756;BME280;32506;52.826;-1.192;2022-07-23T12:23:14;101063.88;;;29.93;30.61
46756;BME280;32506;52.826;-1.192;2022-07-23T12:25:42;101063.56;;;29.95;30.15
46756;BME280;32506;52.826;-1.192;2022-07-23T12:28:10;101065.97;;;29.96;30.35
46756;BME280;32506;52.826;-1.192;2022-07-23T12:30:48;101070.34;;;29.98;30.23
46756;BME280;32506;52.826;-1.192;2022-07-23T12:33:20;101057.50;;;30.02;30.58
46756;BME280;32506;52.826;-1.192;2022-07-23T12:35:47;101047.56;;;30.09;30.53
46756;BME280;32506;52.826;-1.192;2022-07-23T12:38:18;101040.72;;;30.16;30.67
46756;BME280;32506;52.826;-1.192;2022-07-23T12:40:54;101037.44;;;30.22;31.08
46756;BME280;32506;52.826;-1.192;2022-07-23T12:43:31;101047.22;;;30.32;31.34
46756;BME280;32506;52.826;-1.192;2022-07-23T12:46:06;101040.38;;;30.38;30.45
46756;BME280;32506;52.826;-1.192;2022-07-23T12:48:35;101040.19;;;30.43;30.32
46756;BME280;32506;52.826;-1.192;2022-07-23T12:51:09;101050.22;;;30.48;30.28
46756;BME280;32506;52.826;-1.192;2022-07-23T12:53:45;101039.66;;;30.50;30.04
46756;BME280;32506;52.826;-1.192;2022-07-23T12:56:13;101040.47;;;30.51;29.99
46756;BME280;32506;52.826;-1.192;2022-07-23T12:58:53;101040.13;;;30.52;30.02
46756;BME280;32506;52.826;-1.192;2022-07-23T13:04:04;101033.34;;;30.50;29.97
46756;BME280;32506;52.826;-1.192;2022-07-23T13:06:32;101040.31;;;30.47;29.94
46756;BME280;32506;52.826;-1.192;2022-07-23T13:08:59;101041.16;;;30.48;29.99
46756;BME280;32506;52.826;-1.192;2022-07-23T13:11:25;101039.19;;;30.48;30.05
46756;BME280;32506;52.826;-1.192;2022-07-23T13:13:50;101042.78;;;30.49;30.17